sensor_id;sensor_type;location;lat;lon;timestamp;pressure;altitude;pressure_sealevel;temperature;humidity
16525;BME280;8375;33.594;-117.718;2023-02-19T00:01:43;100206.94;;;19.37;20.02
16525;BME280;8375;33.594;-117.718;2023-02-19T00:04:14;100205.38;;;19.28;20.85
16525;BME280;8375;33.594;-117.718;2023-02-19T00:06:44;100220.69;;;19.24;20.55
16525;BME280;8375;33.594;-117.718;2023-02-19T00:09:14;100219.34;;;19.28;21.61
16525;BME280;8375;33.594;-117.718;2023-02-19T00:11:45;100216.88;;;19.27;22.24
16525;BME280;8375;33.594;-117.718;2023-02-19T00:14:16;100217.72;;;19.27;22.14
16525;BME280;8375;33.594;-117.718;2023-02-19T00:16:45;100215.94;;;19.19;21.96
16525;BME280;8375;33.594;-117.718;2023-02-19T00:19:15;100219.47;;;19.12;21.50
16525;BME280;8375;33.594;-117.718;2023-02-19T00:21:44;100219.31;;;19.05;21.42
16525;BME280;8375;33.594;-117.718;2023-02-19T00:24:13;100212.97;;;18.99;22.11
16525;BME280;8375;33.594;-117.718;2023-02-19T00:26:44;100215.94;;;18.88;21.68
16525;BME280;8375;33.594;-117.718;2023-02-19T00:29:15;100220.09;;;18.74;22.25
16525;BME280;8375;33.594;-117.718;2023-02-19T00:31:45;100224.06;;;18.70;22.30
16525;BME280;8375;33.594;-117.718;2023-02-19T00:34:13;100223.63;;;18.58;21.95
16525;BME280;8375;33.594;-117.718;2023-02-19T00:36:42;100228.91;;;18.41;21.09
16525;BME280;8375;33.594;-117.718;2023-02-19T00:39:14;100225.88;;;18.21;21.31
16525;BME280;8375;33.594;-117.718;2023-02-19T00:41:45;100225.88;;;17.96;21.90
16525;BME280;8375;33.594;-117.718;2023-02-19T00:44:14;100218.34;;;17.85;21.69
16525;BME280;8375;33.594;-117.718;2023-02-19T00:46:45;100216.69;;;17.67;22.59
16525;BME280;8375;33.594;-117.718;2023-02-19T00:49:17;100208.81;;;17.59;23.18
16525;BME280;8375;33.594;-117.718;2023-02-19T00:51:54;100209.94;;;17.48;23.13
16525;BME280;8375;33.594;-117.718;2023-02-19T00:54:26;100218.75;;;17.14;23.87
16525;BME280;8375;33.594;-117.718;2023-02-19T00:56:59;100217.97;;;17.13;23.58
16525;BME280;8375;33.594;-117.718;2023-02-19T00:59:28;100215.97;;;17.07;23.52
16525;BME280;8375;33.594;-117.718;2023-02-19T01:01:58;100207.72;;;16.94;23.85
16525;BME280;8375;33.594;-117.718;2023-02-19T01:04:27;100208.50;;;16.86;24.99
16525;BME280;8375;33.594;-117.718;2023-02-19T01:06:56;100218.63;;;16.81;24.70
16525;BME280;8375;33.594;-117.718;2023-02-19T01:09:25;100207.94;;;16.66;24.79
16525;BME280;8375;33.594;-117.718;2023-02-19T01:11:55;100213.28;;;16.56;24.58
16525;BME280;8375;33.594;-117.718;2023-02-19T01:14:27;100213.78;;;16.51;25.16
16525;BME280;8375;33.594;-117.718;2023-02-19T01:16:55;100211.44;;;16.40;24.74
16525;BME280;8375;33.594;-117.718;2023-02-19T01:19:24;100205.50;;;16.30;24.99
16525;BME280;8375;33.594;-117.718;2023-02-19T01:21:56;100208.38;;;16.18;25.66
16525;BME280;8375;33.594;-117.718;2023-02-19T01:24:26;100210.28;;;16.08;25.20
16525;BME280;8375;33.594;-117.718;2023-02-19T01:26:55;100206.56;;;15.92;25.45
16525;BME280;8375;33.594;-117.718;2023-02-19T01:29:25;100201.44;;;15.73;25.46
16525;BME280;8375;33.594;-117.718;2023-02-19T01:31:54;100205.66;;;15.65;27.07
16525;BME280;8375;33.594;-117.718;2023-02-19T01:34:23;100208.13;;;15.49;27.76
16525;BME280;8375;33.594;-117.718;2023-02-19T01:36:52;100214.94;;;15.42;28.38
16525;BME280;8375;33.594;-117.718;2023-02-19T01:39:21;100215.16;;;15.30;29.29
16525;BME280;8375;33.594;-117.718;2023-02-19T01:41:49;100208.19;;;15.21;28.90
16525;BME280;8375;33.594;-117.718;2023-02-19T01:47:24;100214.31;;;14.84;30.24
16525;BME280;8375;33.594;-117.718;2023-02-19T01:49:54;100215.34;;;14.73;30.98
16525;BME280;8375;33.594;-117.718;2023-02-19T01:52:27;100217.28;;;14.61;30.83
16525;BME280;8375;33.594;-117.718;2023-02-19T01:54:58;100230.69;;;14.48;31.12
16525;BME280;8375;33.594;-117.718;2023-02-19T01:57:33;100232.50;;;14.37;31.30
16525;BME280;8375;33.594;-117.718;2023-02-19T02:00:06;100229.22;;;14.26;31.52
16525;BME280;8375;33.594;-117.718;2023-02-19T02:02:38;100233.94;;;14.12;31.59
16525;BME280;8375;33.594;-117.718;2023-02-19T02:05:10;100228.75;;;14.02;31.57
16525;BME280;8375;33.594;-117.718;2023-02-19T02:07:42;100234.22;;;13.89;32.08
16525;BME280;8375;33.594;-117.718;2023-02-19T02:10:28;100224.50;;;13.72;32.06
16525;BME280;8375;33.594;-117.718;2023-02-19T02:12:57;100231.50;;;13.61;32.36
16525;BME280;8375;33.594;-117.718;2023-02-19T02:15:32;100231.78;;;13.58;32.44
16525;BME280;8375;33.594;-117.718;2023-02-19T02:18:12;100233.38;;;13.40;33.26
16525;BME280;8375;33.594;-117.718;2023-02-19T02:21:02;100230.88;;;13.28;33.41
16525;BME280;8375;33.594;-117.718;2023-02-19T02:23:45;100233.88;;;13.14;32.46
16525;BME280;8375;33.594;-117.718;2023-02-19T02:26:42;100236.31;;;13.05;33.37
16525;BME280;8375;33.594;-117.718;2023-02-19T02:29:25;100239.47;;;12.99;33.67
16525;BME280;8375;33.594;-117.718;2023-02-19T02:31:59;100243.28;;;12.95;33.19
16525;BME280;8375;33.594;-117.718;2023-02-19T02:34:35;100243.41;;;12.84;33.39
16525;BME280;8375;33.594;-117.718;2023-02-19T02:37:09;100245.31;;;12.82;33.65
16525;BME280;8375;33.594;-117.718;2023-02-19T02:39:39;100241.69;;;12.73;33.89
16525;BME280;8375;33.594;-117.718;2023-02-19T02:42:09;100248.69;;;12.72;33.69
16525;BME280;8375;33.594;-117.718;2023-02-19T02:44:57;100246.19;;;12.61;34.20
16525;BME280;8375;33.594;-117.718;2023-02-19T02:47:46;100252.97;;;12.52;34.47
16525;BME280;8375;33.594;-117.718;2023-02-19T02:50:20;100252.00;;;12.43;34.57
16525;BME280;8375;33.594;-117.718;2023-02-19T02:52:54;100254.69;;;12.42;34.58
16525;BME280;8375;33.594;-117.718;2023-02-19T02:55:43;100257.38;;;12.30;35.31
16525;BME280;8375;33.594;-117.718;2023-02-19T02:58:14;100259.25;;;12.18;35.73
16525;BME280;8375;33.594;-117.718;2023-02-19T03:00:55;100254.66;;;12.11;34.31
16525;BME280;8375;33.594;-117.718;2023-02-19T03:03:46;100256.94;;;12.04;34.77
16525;BME280;8375;33.594;-117.718;2023-02-19T03:06:23;100263.88;;;11.82;35.13
16525;BME280;8375;33.594;-117.718;2023-02-19T03:09:00;100268.72;;;11.76;35.60
16525;BME280;8375;33.594;-117.718;2023-02-19T03:11:38;100273.38;;;11.72;35.07
16525;BME280;8375;33.594;-117.718;2023-02-19T03:14:29;100276.72;;;11.63;34.86
16525;BME280;8375;33.594;-117.718;2023-02-19T03:17:21;100286.53;;;11.59;35.02
16525;BME280;8375;33.594;-117.718;2023-02-19T03:20:13;100286.31;;;11.51;34.52
16525;BME280;8375;33.594;-117.718;2023-02-19T03:22:44;100288.56;;;11.44;35.27
16525;BME280;8375;33.594;-117.718;2023-02-19T03:25:17;100287.66;;;11.34;35.09
16525;BME280;8375;33.594;-117.718;2023-02-19T03:28:09;100302.19;;;11.13;35.71
16525;BME280;8375;33.594;-117.718;2023-02-19T03:30:42;100299.72;;;11.12;35.60
16525;BME280;8375;33.594;-117.718;2023-02-19T03:33:16;100306.22;;;11.06;35.84
16525;BME280;8375;33.594;-117.718;2023-02-19T03:35:54;100300.19;;;11.06;36.25
16525;BME280;8375;33.594;-117.718;2023-02-19T03:38:27;100309.97;;;11.02;35.29
16525;BME280;8375;33.594;-117.718;2023-02-19T03:41:02;100301.00;;;10.83;36.30
16525;BME280;8375;33.594;-117.718;2023-02-19T03:43:41;100309.50;;;10.74;36.66
16525;BME280;8375;33.594;-117.718;2023-02-19T03:46:16;100316.47;;;10.74;36.41
16525;BME280;8375;33.594;-117.718;2023-02-19T03:48:54;100309.72;;;10.71;36.48
16525;BME280;8375;33.594;-117.718;2023-02-19T03:51:33;100311.28;;;10.62;36.57
16525;BME280;8375;33.594;-117.718;2023-02-19T03:54:14;100325.84;;;10.52;36.60
16525;BME280;8375;33.594;-117.718;2023-02-19T03:56:50;100330.56;;;10.47;37.32
16525;BME280;8375;33.594;-117.718;2023-02-19T03:59:31;100337.13;;;10.39;37.64
16525;BME280;8375;33.594;-117.718;2023-02-19T04:02:13;100336.63;;;10.34;37.57
16525;BME280;8375;33.594;-117.718;2023-02-19T04:04:53;100337.31;;;10.25;37.17
16525;BME280;8375;33.594;-117.718;2023-02-19T04:07:27;100334.13;;;10.21;37.09
16525;BME280;8375;33.594;-117.718;2023-02-19T04:10:03;100336.72;;;10.21;37.71
16525;BME280;8375;33.594;-117.718;2023-02-19T04:12:45;100338.91;;;10.15;37.72
16525;BME280;8375;33.594;-117.718;2023-02-19T04:15:23;100342.88;;;10.07;37.63
16525;BME280;8375;33.594;-117.718;2023-02-19T04:17:56;100342.53;;;10.01;38.17
16525;BME280;8375;33.594;-117.718;2023-02-19T04:20:28;100349.31;;;9.90;38.32
16525;BME280;8375;33.594;-117.718;2023-02-19T04:22:59;100345.28;;;9.86;39.12
16525;BME280;8375;33.594;-117.718;2023-02-19T04:25:28;100351.00;;;9.78;39.28
16525;BME280;8375;33.594;-117.718;2023-02-19T04:27:58;100346.75;;;9.77;39.20
16525;BME280;8375;33.594;-117.718;2023-02-19T04:30:27;100349.69;;;9.73;39.50
16525;BME280;8375;33.594;-117.718;2023-02-19T04:32:55;100357.06;;;9.66;40.02
16525;BME280;8375;33.594;-117.718;2023-02-19T04:35:24;100356.56;;;9.61;39.97
16525;BME280;8375;33.594;-117.718;2023-02-19T04:37:53;100358.41;;;9.59;40.21
16525;BME280;8375;33.594;-117.718;2023-02-19T04:40:23;100366.41;;;9.56;39.67
16525;BME280;8375;33.594;-117.718;2023-02-19T04:42:52;100366.41;;;9.56;39.93
16525;BME280;8375;33.594;-117.718;2023-02-19T04:45:20;100368.63;;;9.49;40.43
16525;BME280;8375;33.594;-117.718;2023-02-19T04:47:49;100370.50;;;9.47;40.95
16525;BME280;8375;33.594;-117.718;2023-02-19T04:50:19;100362.22;;;9.42;40.56
16525;BME280;8375;33.594;-117.718;2023-02-19T04:52:53;100369.34;;;9.38;41.64
16525;BME280;8375;33.594;-117.718;2023-02-19T04:55:26;100373.41;;;9.29;42.08
16525;BME280;8375;33.594;-117.718;2023-02-19T04:57:55;100375.16;;;9.29;42.20
16525;BME280;8375;33.594;-117.718;2023-02-19T05:00:24;100380.56;;;9.25;41.91
16525;BME280;8375;33.594;-117.718;2023-02-19T05:02:53;100384.41;;;9.07;42.89
16525;BME280;8375;33.594;-117.718;2023-02-19T05:05:22;100392.38;;;9.04;43.04
16525;BME280;8375;33.594;-117.718;2023-02-19T05:07:51;100397.56;;;9.04;43.08
16525;BME280;8375;33.594;-117.718;2023-02-19T05:10:27;100402.84;;;9.02;42.89
16525;BME280;8375;33.594;-117.718;2023-02-19T05:12:57;100401.81;;;9.05;42.95
16525;BME280;8375;33.594;-117.718;2023-02-19T05:15:27;100407.31;;;9.00;42.90
16525;BME280;8375;33.594;-117.718;2023-02-19T05:17:57;100412.88;;;8.94;43.36
16525;BME280;8375;33.594;-117.718;2023-02-19T05:20:28;100405.53;;;8.88;43.21
16525;BME280;8375;33.594;-117.718;2023-02-19T05:22:58;100401.06;;;8.77;43.55
16525;BME280;8375;33.594;-117.718;2023-02-19T05:25:29;100403.63;;;8.77;43.83
16525;BME280;8375;33.594;-117.718;2023-02-19T05:27:58;100408.00;;;8.76;43.66
16525;BME280;8375;33.594;-117.718;2023-02-19T05:30:42;100398.88;;;8.71;44.12
16525;BME280;8375;33.594;-117.718;2023-02-19T05:33:13;100406.94;;;8.66;44.36
16525;BME280;8375;33.594;-117.718;2023-02-19T05:35:44;100405.28;;;8.65;44.08
16525;BME280;8375;33.594;-117.718;2023-02-19T05:38:13;100405.69;;;8.59;44.53
16525;BME280;8375;33.594;-117.718;2023-02-19T05:40:45;100411.88;;;8.56;44.40
16525;BME280;8375;33.594;-117.718;2023-02-19T05:43:14;100408.75;;;8.51;44.68
16525;BME280;8375;33.594;-117.718;2023-02-19T05:45:44;100409.78;;;8.48;44.97
16525;BME280;8375;33.594;-117.718;2023-02-19T05:48:13;100402.69;;;8.37;45.46
16525;BME280;8375;33.594;-117.718;2023-02-19T05:50:42;100421.19;;;8.31;45.57
16525;BME280;8375;33.594;-117.718;2023-02-19T05:53:15;100419.09;;;8.24;45.90
16525;BME280;8375;33.594;-117.718;2023-02-19T05:55:46;100414.94;;;8.21;45.56
16525;BME280;8375;33.594;-117.718;2023-02-19T05:58:15;100419.31;;;8.20;45.62
16525;BME280;8375;33.594;-117.718;2023-02-19T06:00:44;100421.25;;;8.17;45.74
16525;BME280;8375;33.594;-117.718;2023-02-19T06:03:15;100417.00;;;8.16;45.92
16525;BME280;8375;33.594;-117.718;2023-02-19T06:05:44;100420.50;;;8.15;45.59
16525;BME280;8375;33.594;-117.718;2023-02-19T06:08:14;100416.44;;;8.11;46.04
16525;BME280;8375;33.594;-117.718;2023-02-19T06:10:45;100410.84;;;8.04;46.43
16525;BME280;8375;33.594;-117.718;2023-02-19T06:13:14;100408.28;;;8.04;46.50
16525;BME280;8375;33.594;-117.718;2023-02-19T06:15:44;100408.66;;;7.98;46.94
16525;BME280;8375;33.594;-117.718;2023-02-19T06:18:14;100403.56;;;7.96;47.14
16525;BME280;8375;33.594;-117.718;2023-02-19T06:20:42;100412.63;;;7.89;47.07
16525;BME280;8375;33.594;-117.718;2023-02-19T06:23:11;100413.63;;;7.86;47.64
16525;BME280;8375;33.594;-117.718;2023-02-19T06:25:40;100409.38;;;7.85;47.28
16525;BME280;8375;33.594;-117.718;2023-02-19T06:28:11;100423.16;;;7.86;47.51
16525;BME280;8375;33.594;-117.718;2023-02-19T06:30:39;100426.00;;;7.81;47.73
16525;BME280;8375;33.594;-117.718;2023-02-19T06:33:08;100425.38;;;7.77;47.68
16525;BME280;8375;33.594;-117.718;2023-02-19T06:35:37;100420.41;;;7.74;48.43
16525;BME280;8375;33.594;-117.718;2023-02-19T06:38:06;100432.78;;;7.69;48.93
16525;BME280;8375;33.594;-117.718;2023-02-19T06:40:34;100420.13;;;7.64;49.10
16525;BME280;8375;33.594;-117.718;2023-02-19T06:43:03;100418.03;;;7.57;49.04
16525;BME280;8375;33.594;-117.718;2023-02-19T06:45:33;100417.09;;;7.58;49.49
16525;BME280;8375;33.594;-117.718;2023-02-19T06:48:02;100424.94;;;7.56;49.73
16525;BME280;8375;33.594;-117.718;2023-02-19T06:50:31;100437.22;;;7.53;50.11
16525;BME280;8375;33.594;-117.718;2023-02-19T06:52:59;100428.72;;;7.51;50.61
16525;BME280;8375;33.594;-117.718;2023-02-19T06:55:28;100418.75;;;7.44;50.11
16525;BME280;8375;33.594;-117.718;2023-02-19T06:57:57;100417.09;;;7.43;50.10
16525;BME280;8375;33.594;-117.718;2023-02-19T07:00:25;100413.84;;;7.40;49.64
16525;BME280;8375;33.594;-117.718;2023-02-19T07:02:56;100417.38;;;7.39;49.53
16525;BME280;8375;33.594;-117.718;2023-02-19T07:05:24;100412.31;;;7.37;49.79
16525;BME280;8375;33.594;-117.718;2023-02-19T07:07:53;100413.31;;;7.34;49.79
16525;BME280;8375;33.594;-117.718;2023-02-19T07:10:22;100418.66;;;7.31;49.54
16525;BME280;8375;33.594;-117.718;2023-02-19T07:12:50;100420.78;;;7.25;49.66
16525;BME280;8375;33.594;-117.718;2023-02-19T07:15:19;100411.56;;;7.21;49.79
16525;BME280;8375;33.594;-117.718;2023-02-19T07:17:47;100409.91;;;7.19;49.90
16525;BME280;8375;33.594;-117.718;2023-02-19T07:20:18;100410.09;;;7.16;50.56
16525;BME280;8375;33.594;-117.718;2023-02-19T07:22:46;100402.59;;;7.12;49.97
16525;BME280;8375;33.594;-117.718;2023-02-19T07:25:15;100396.22;;;7.03;49.74
16525;BME280;8375;33.594;-117.718;2023-02-19T07:27:44;100394.75;;;6.99;49.80
16525;BME280;8375;33.594;-117.718;2023-02-19T07:30:13;100394.84;;;6.97;50.21
16525;BME280;8375;33.594;-117.718;2023-02-19T07:32:42;100388.13;;;6.95;50.05
16525;BME280;8375;33.594;-117.718;2023-02-19T07:35:11;100390.22;;;6.88;50.37
16525;BME280;8375;33.594;-117.718;2023-02-19T07:37:41;100392.03;;;6.86;51.31
16525;BME280;8375;33.594;-117.718;2023-02-19T07:40:10;100393.06;;;6.83;51.68
16525;BME280;8375;33.594;-117.718;2023-02-19T07:42:39;100391.31;;;6.84;50.77
16525;BME280;8375;33.594;-117.718;2023-02-19T07:45:08;100390.84;;;6.77;51.28
16525;BME280;8375;33.594;-117.718;2023-02-19T07:47:36;100385.94;;;6.72;51.64
16525;BME280;8375;33.594;-117.718;2023-02-19T07:50:06;100387.94;;;6.67;52.51
16525;BME280;8375;33.594;-117.718;2023-02-19T07:52:34;100386.41;;;6.65;52.94
16525;BME280;8375;33.594;-117.718;2023-02-19T07:55:05;100382.41;;;6.59;52.82
16525;BME280;8375;33.594;-117.718;2023-02-19T07:57:34;100388.66;;;6.55;53.81
16525;BME280;8375;33.594;-117.718;2023-02-19T08:00:03;100383.09;;;6.46;54.41
16525;BME280;8375;33.594;-117.718;2023-02-19T08:02:31;100377.19;;;6.44;54.58
16525;BME280;8375;33.594;-117.718;2023-02-19T08:05:17;100378.38;;;6.39;54.46
16525;BME280;8375;33.594;-117.718;2023-02-19T08:07:46;100373.47;;;6.34;54.89
16525;BME280;8375;33.594;-117.718;2023-02-19T08:10:16;100377.88;;;6.32;55.23
16525;BME280;8375;33.594;-117.718;2023-02-19T08:13:02;100374.75;;;6.27;55.32
16525;BME280;8375;33.594;-117.718;2023-02-19T08:15:48;100365.28;;;6.27;55.79
16525;BME280;8375;33.594;-117.718;2023-02-19T08:18:18;100360.13;;;6.27;55.55
16525;BME280;8375;33.594;-117.718;2023-02-19T08:20:47;100357.59;;;6.26;55.70
16525;BME280;8375;33.594;-117.718;2023-02-19T08:23:16;100353.47;;;6.23;55.76
16525;BME280;8375;33.594;-117.718;2023-02-19T08:25:48;100352.16;;;6.16;56.27
16525;BME280;8375;33.594;-117.718;2023-02-19T08:28:18;100350.38;;;6.16;56.69
16525;BME280;8375;33.594;-117.718;2023-02-19T08:30:47;100341.84;;;6.16;57.03
16525;BME280;8375;33.594;-117.718;2023-02-19T08:33:17;100346.25;;;6.14;57.34
16525;BME280;8375;33.594;-117.718;2023-02-19T08:35:46;100344.75;;;6.10;57.96
16525;BME280;8375;33.594;-117.718;2023-02-19T08:38:15;100340.69;;;6.06;57.90
16525;BME280;8375;33.594;-117.718;2023-02-19T08:40:46;100338.84;;;5.92;58.10
16525;BME280;8375;33.594;-117.718;2023-02-19T08:43:15;100338.34;;;5.85;59.02
16525;BME280;8375;33.594;-117.718;2023-02-19T08:45:44;100338.25;;;5.86;59.74
16525;BME280;8375;33.594;-117.718;2023-02-19T08:48:15;100337.34;;;5.87;60.32
16525;BME280;8375;33.594;-117.718;2023-02-19T08:50:43;100336.59;;;5.85;59.46
16525;BME280;8375;33.594;-117.718;2023-02-19T08:53:12;100330.06;;;5.80;59.69
16525;BME280;8375;33.594;-117.718;2023-02-19T08:55:40;100327.97;;;5.70;59.65
16525;BME280;8375;33.594;-117.718;2023-02-19T08:58:11;100325.56;;;5.67;59.79
16525;BME280;8375;33.594;-117.718;2023-02-19T09:00:40;100322.06;;;5.68;60.07
16525;BME280;8375;33.594;-117.718;2023-02-19T09:03:09;100322.25;;;5.65;60.38
16525;BME280;8375;33.594;-117.718;2023-02-19T09:05:38;100330.88;;;5.64;60.87
16525;BME280;8375;33.594;-117.718;2023-02-19T09:08:07;100321.56;;;5.62;60.86
16525;BME280;8375;33.594;-117.718;2023-02-19T09:10:35;100322.66;;;5.57;60.75
16525;BME280;8375;33.594;-117.718;2023-02-19T09:13:04;100317.75;;;5.53;60.94
16525;BME280;8375;33.594;-117.718;2023-02-19T09:15:36;100317.06;;;5.49;61.07
16525;BME280;8375;33.594;-117.718;2023-02-19T09:18:05;100324.97;;;5.46;60.94
16525;BME280;8375;33.594;-117.718;2023-02-19T09:20:33;100321.81;;;5.41;61.87
16525;BME280;8375;33.594;-117.718;2023-02-19T09:23:02;100325.22;;;5.41;61.82
16525;BME280;8375;33.594;-117.718;2023-02-19T09:25:31;100327.75;;;5.25;62.73
16525;BME280;8375;33.594;-117.718;2023-02-19T09:27:59;100324.59;;;5.20;62.67
16525;BME280;8375;33.594;-117.718;2023-02-19T09:30:28;100322.03;;;5.20;62.64
16525;BME280;8375;33.594;-117.718;2023-02-19T09:32:58;100334.06;;;5.20;62.75
16525;BME280;8375;33.594;-117.718;2023-02-19T09:35:27;100328.31;;;5.14;62.70
16525;BME280;8375;33.594;-117.718;2023-02-19T09:37:58;100323.25;;;5.13;62.80
16525;BME280;8375;33.594;-117.718;2023-02-19T09:40:28;100311.47;;;5.09;63.14
16525;BME280;8375;33.594;-117.718;2023-02-19T09:42:57;100319.34;;;5.06;63.73
16525;BME280;8375;33.594;-117.718;2023-02-19T09:45:26;100322.66;;;5.08;63.94
16525;BME280;8375;33.594;-117.718;2023-02-19T09:47:57;100321.66;;;5.10;64.33
16525;BME280;8375;33.594;-117.718;2023-02-19T09:50:31;100327.06;;;5.06;64.43
16525;BME280;8375;33.594;-117.718;2023-02-19T09:53:03;100321.31;;;5.01;64.48
16525;BME280;8375;33.594;-117.718;2023-02-19T09:55:37;100317.84;;;5.02;64.64
16525;BME280;8375;33.594;-117.718;2023-02-19T09:58:20;100317.63;;;4.89;64.95
16525;BME280;8375;33.594;-117.718;2023-02-19T10:00:50;100317.78;;;4.85;65.08
16525;BME280;8375;33.594;-117.718;2023-02-19T10:03:23;100324.59;;;4.87;65.41
16525;BME280;8375;33.594;-117.718;2023-02-19T10:05:56;100324.69;;;4.85;65.32
16525;BME280;8375;33.594;-117.718;2023-02-19T10:08:29;100318.78;;;4.83;65.14
16525;BME280;8375;33.594;-117.718;2023-02-19T10:10:59;100324.84;;;4.82;65.10
16525;BME280;8375;33.594;-117.718;2023-02-19T10:13:30;100315.47;;;4.81;65.25
16525;BME280;8375;33.594;-117.718;2023-02-19T10:16:01;100308.13;;;4.73;65.70
16525;BME280;8375;33.594;-117.718;2023-02-19T10:18:36;100308.06;;;4.75;65.83
16525;BME280;8375;33.594;-117.718;2023-02-19T10:21:07;100306.44;;;4.72;65.61
16525;BME280;8375;33.594;-117.718;2023-02-19T10:23:38;100297.31;;;4.66;66.00
16525;BME280;8375;33.594;-117.718;2023-02-19T10:26:09;100285.69;;;4.59;66.29
16525;BME280;8375;33.594;-117.718;2023-02-19T10:28:38;100288.00;;;4.64;66.87
16525;BME280;8375;33.594;-117.718;2023-02-19T10:31:15;100288.00;;;4.64;66.61
16525;BME280;8375;33.594;-117.718;2023-02-19T10:33:51;100291.47;;;4.63;66.32
16525;BME280;8375;33.594;-117.718;2023-02-19T10:36:25;100293.16;;;4.64;66.07
16525;BME280;8375;33.594;-117.718;2023-02-19T10:38:54;100293.47;;;4.58;66.58
16525;BME280;8375;33.594;-117.718;2023-02-19T10:41:24;100284.22;;;4.53;66.92
16525;BME280;8375;33.594;-117.718;2023-02-19T10:44:03;100284.19;;;4.55;66.75
16525;BME280;8375;33.594;-117.718;2023-02-19T10:46:35;100289.00;;;4.61;66.54
16525;BME280;8375;33.594;-117.718;2023-02-19T10:49:20;100278.94;;;4.57;66.42
16525;BME280;8375;33.594;-117.718;2023-02-19T10:51:51;100276.63;;;4.52;66.47
16525;BME280;8375;33.594;-117.718;2023-02-19T10:54:26;100275.88;;;4.50;66.47
16525;BME280;8375;33.594;-117.718;2023-02-19T10:57:15;100274.66;;;4.57;65.42
16525;BME280;8375;33.594;-117.718;2023-02-19T10:59:57;100275.63;;;4.54;64.20
16525;BME280;8375;33.594;-117.718;2023-02-19T11:02:27;100268.59;;;4.58;64.69
16525;BME280;8375;33.594;-117.718;2023-02-19T11:05:08;100270.16;;;4.61;64.97
16525;BME280;8375;33.594;-117.718;2023-02-19T11:07:44;100267.00;;;4.55;65.51
16525;BME280;8375;33.594;-117.718;2023-02-19T11:10:25;100279.69;;;4.59;65.55
16525;BME280;8375;33.594;-117.718;2023-02-19T11:12:56;100273.13;;;4.53;65.05
16525;BME280;8375;33.594;-117.718;2023-02-19T11:15:28;100259.53;;;4.51;65.39
16525;BME280;8375;33.594;-117.718;2023-02-19T11:18:02;100267.38;;;4.48;65.83
16525;BME280;8375;33.594;-117.718;2023-02-19T11:20:33;100256.41;;;4.44;65.94
16525;BME280;8375;33.594;-117.718;2023-02-19T11:23:09;100256.56;;;4.41;65.35
16525;BME280;8375;33.594;-117.718;2023-02-19T11:25:44;100258.16;;;4.44;64.83
16525;BME280;8375;33.594;-117.718;2023-02-19T11:28:25;100261.72;;;4.41;64.73
16525;BME280;8375;33.594;-117.718;2023-02-19T11:31:12;100257.63;;;4.37;65.29
16525;BME280;8375;33.594;-117.718;2023-02-19T11:33:47;100255.22;;;4.34;65.88
16525;BME280;8375;33.594;-117.718;2023-02-19T11:36:31;100249.41;;;4.30;66.34
16525;BME280;8375;33.594;-117.718;2023-02-19T11:39:18;100246.09;;;4.28;66.50
16525;BME280;8375;33.594;-117.718;2023-02-19T11:42:03;100244.34;;;4.11;67.13
16525;BME280;8375;33.594;-117.718;2023-02-19T11:44:45;100251.13;;;4.12;67.76
16525;BME280;8375;33.594;-117.718;2023-02-19T11:47:36;100246.25;;;4.07;66.98
16525;BME280;8375;33.594;-117.718;2023-02-19T11:50:13;100256.72;;;4.03;67.87
16525;BME280;8375;33.594;-117.718;2023-02-19T11:52:57;100249.03;;;4.03;67.47
16525;BME280;8375;33.594;-117.718;2023-02-19T11:55:36;100247.44;;;4.00;67.95
16525;BME280;8375;33.594;-117.718;2023-02-19T11:58:36;100243.41;;;3.94;68.05
16525;BME280;8375;33.594;-117.718;2023-02-19T12:01:19;100230.72;;;3.91;67.85
16525;BME280;8375;33.594;-117.718;2023-02-19T12:04:11;100227.34;;;3.91;67.74
16525;BME280;8375;33.594;-117.718;2023-02-19T12:06:50;100222.66;;;3.99;68.34
16525;BME280;8375;33.594;-117.718;2023-02-19T12:09:33;100229.53;;;3.99;68.07
16525;BME280;8375;33.594;-117.718;2023-02-19T12:12:16;100237.31;;;3.97;68.40
16525;BME280;8375;33.594;-117.718;2023-02-19T12:18:20;100240.53;;;3.83;68.06
16525;BME280;8375;33.594;-117.718;2023-02-19T12:21:02;100235.78;;;3.75;68.35
16525;BME280;8375;33.594;-117.718;2023-02-19T12:23:53;100242.88;;;3.70;68.34
16525;BME280;8375;33.594;-117.718;2023-02-19T12:26:28;100240.97;;;3.74;68.78
16525;BME280;8375;33.594;-117.718;2023-02-19T12:29:19;100238.66;;;3.69;68.38
16525;BME280;8375;33.594;-117.718;2023-02-19T12:32:21;100249.72;;;3.70;68.70
16525;BME280;8375;33.594;-117.718;2023-02-19T12:35:14;100249.81;;;3.68;68.75
16525;BME280;8375;33.594;-117.718;2023-02-19T12:37:54;100248.22;;;3.65;68.76
16525;BME280;8375;33.594;-117.718;2023-02-19T12:40:45;100261.19;;;3.62;69.07
16525;BME280;8375;33.594;-117.718;2023-02-19T12:43:20;100266.34;;;3.62;69.24
16525;BME280;8375;33.594;-117.718;2023-02-19T12:45:53;100275.94;;;3.40;70.67
16525;BME280;8375;33.594;-117.718;2023-02-19T12:48:29;100281.97;;;3.38;70.21
16525;BME280;8375;33.594;-117.718;2023-02-19T12:51:04;100285.28;;;3.41;70.48
16525;BME280;8375;33.594;-117.718;2023-02-19T12:53:39;100287.03;;;3.40;70.64
16525;BME280;8375;33.594;-117.718;2023-02-19T12:56:13;100291.34;;;3.20;71.66
16525;BME280;8375;33.594;-117.718;2023-02-19T12:58:49;100293.53;;;3.09;72.92
16525;BME280;8375;33.594;-117.718;2023-02-19T13:01:22;100301.91;;;3.13;73.08
16525;BME280;8375;33.594;-117.718;2023-02-19T13:04:21;100292.38;;;3.16;73.54
16525;BME280;8375;33.594;-117.718;2023-02-19T13:06:55;100287.25;;;3.16;73.76
16525;BME280;8375;33.594;-117.718;2023-02-19T13:09:29;100291.66;;;3.13;73.89
16525;BME280;8375;33.594;-117.718;2023-02-19T13:12:04;100300.00;;;3.18;74.00
16525;BME280;8375;33.594;-117.718;2023-02-19T13:14:38;100295.00;;;3.15;73.72
16525;BME280;8375;33.594;-117.718;2023-02-19T13:17:16;100292.38;;;3.16;73.59